sensor_id;sensor_type;location;lat;lon;timestamp;P1;durP1;ratioP1;P2;durP2;ratioP2
60076;SDS011;45950;45.208;20.374;2023-06-22T00:00:20;9.95;;;8.93;;
60076;SDS011;45950;45.208;20.374;2023-06-22T00:02:46;10.85;;;9.10;;
60076;SDS011;45950;45.208;20.374;2023-06-22T00:05:13;12.43;;;10.88;;
60076;SDS011;45950;45.208;20.374;2023-06-22T00:07:39;12.88;;;11.43;;
60076;SDS011;45950;45.208;20.374;2023-06-22T00:10:06;13.07;;;11.77;;
60076;SDS011;45950;45.208;20.374;2023-06-22T00:12:35;15.60;;;12.40;;
60076;SDS011;45950;45.208;20.374;2023-06-22T00:15:01;12.23;;;10.18;;
60076;SDS011;45950;45.208;20.374;2023-06-22T00:17:28;12.95;;;11.65;;
60076;SDS011;45950;45.208;20.374;2023-06-22T00:19:54;12.70;;;11.40;;
60076;SDS011;45950;45.208;20.374;2023-06-22T00:22:23;12.95;;;11.60;;
60076;SDS011;45950;45.208;20.374;2023-06-22T00:24:53;13.15;;;11.35;;
60076;SDS011;45950;45.208;20.374;2023-06-22T00:27:20;13.13;;;11.77;;
60076;SDS011;45950;45.208;20.374;2023-06-22T00:29:48;11.77;;;10.57;;
60076;SDS011;45950;45.208;20.374;2023-06-22T00:32:14;11.63;;;9.75;;
60076;SDS011;45950;45.208;20.374;2023-06-22T00:34:42;11.88;;;10.68;;
60076;SDS011;45950;45.208;20.374;2023-06-22T00:37:08;13.32;;;11.02;;
60076;SDS011;45950;45.208;20.374;2023-06-22T00:39:36;11.30;;;10.05;;
60076;SDS011;45950;45.208;20.374;2023-06-22T00:42:03;13.82;;;10.60;;
60076;SDS011;45950;45.208;20.374;2023-06-22T00:44:30;12.43;;;11.15;;
60076;SDS011;45950;45.208;20.374;2023-06-22T00:46:58;12.20;;;10.55;;
60076;SDS011;45950;45.208;20.374;2023-06-22T00:49:26;12.27;;;11.00;;
60076;SDS011;45950;45.208;20.374;2023-06-22T00:51:53;12.82;;;11.35;;
60076;SDS011;45950;45.208;20.374;2023-06-22T00:54:19;12.70;;;11.40;;
60076;SDS011;45950;45.208;20.374;2023-06-22T00:56:49;13.57;;;11.15;;
60076;SDS011;45950;45.208;20.374;2023-06-22T00:59:17;12.32;;;10.63;;
60076;SDS011;45950;45.208;20.374;2023-06-22T01:01:44;12.93;;;10.52;;
60076;SDS011;45950;45.208;20.374;2023-06-22T01:04:12;13.30;;;11.90;;
60076;SDS011;45950;45.208;20.374;2023-06-22T01:06:41;12.80;;;10.38;;
60076;SDS011;45950;45.208;20.374;2023-06-22T01:09:12;15.27;;;10.65;;
60076;SDS011;45950;45.208;20.374;2023-06-22T01:11:41;11.52;;;10.27;;
60076;SDS011;45950;45.208;20.374;2023-06-22T01:14:11;12.57;;;10.85;;
60076;SDS011;45950;45.208;20.374;2023-06-22T01:16:41;12.20;;;9.68;;
60076;SDS011;45950;45.208;20.374;2023-06-22T01:19:09;16.77;;;11.57;;
60076;SDS011;45950;45.208;20.374;2023-06-22T01:21:42;15.32;;;12.48;;
60076;SDS011;45950;45.208;20.374;2023-06-22T01:24:11;15.35;;;11.07;;
60076;SDS011;45950;45.208;20.374;2023-06-22T01:26:42;15.57;;;12.48;;
60076;SDS011;45950;45.208;20.374;2023-06-22T01:29:10;12.50;;;10.57;;
60076;SDS011;45950;45.208;20.374;2023-06-22T01:31:38;12.90;;;11.07;;
60076;SDS011;45950;45.208;20.374;2023-06-22T01:34:06;14.93;;;13.48;;
60076;SDS011;45950;45.208;20.374;2023-06-22T01:36:34;19.40;;;15.40;;
60076;SDS011;45950;45.208;20.374;2023-06-22T01:39:00;16.40;;;14.55;;
60076;SDS011;45950;45.208;20.374;2023-06-22T01:41:36;14.25;;;11.07;;
60076;SDS011;45950;45.208;20.374;2023-06-22T01:46:30;16.43;;;14.40;;
60076;SDS011;45950;45.208;20.374;2023-06-22T01:48:57;16.70;;;12.15;;
60076;SDS011;45950;45.208;20.374;2023-06-22T01:51:23;13.25;;;11.07;;
60076;SDS011;45950;45.208;20.374;2023-06-22T01:53:50;15.38;;;11.20;;
60076;SDS011;45950;45.208;20.374;2023-06-22T01:56:17;12.68;;;9.65;;
60076;SDS011;45950;45.208;20.374;2023-06-22T01:58:46;10.63;;;9.10;;
60076;SDS011;45950;45.208;20.374;2023-06-22T02:01:14;14.27;;;10.38;;
60076;SDS011;45950;45.208;20.374;2023-06-22T02:03:46;11.18;;;9.02;;
60076;SDS011;45950;45.208;20.374;2023-06-22T02:06:14;13.93;;;11.40;;
60076;SDS011;45950;45.208;20.374;2023-06-22T02:08:46;15.57;;;10.82;;
60076;SDS011;45950;45.208;20.374;2023-06-22T02:11:14;12.43;;;9.80;;
60076;SDS011;45950;45.208;20.374;2023-06-22T02:13:41;13.57;;;11.23;;
60076;SDS011;45950;45.208;20.374;2023-06-22T02:16:08;16.00;;;11.20;;
60076;SDS011;45950;45.208;20.374;2023-06-22T02:18:35;15.32;;;11.57;;
60076;SDS011;45950;45.208;20.374;2023-06-22T02:21:03;15.48;;;11.68;;
60076;SDS011;45950;45.208;20.374;2023-06-22T02:23:30;13.00;;;10.82;;
60076;SDS011;45950;45.208;20.374;2023-06-22T02:25:58;16.08;;;11.55;;
60076;SDS011;45950;45.208;20.374;2023-06-22T02:28:24;16.73;;;12.30;;
60076;SDS011;45950;45.208;20.374;2023-06-22T02:30:52;15.50;;;11.35;;
60076;SDS011;45950;45.208;20.374;2023-06-22T02:33:19;16.83;;;12.05;;
60076;SDS011;45950;45.208;20.374;2023-06-22T02:35:46;12.63;;;10.27;;
60076;SDS011;45950;45.208;20.374;2023-06-22T02:38:15;13.77;;;11.68;;
60076;SDS011;45950;45.208;20.374;2023-06-22T02:40:42;12.75;;;10.57;;
60076;SDS011;45950;45.208;20.374;2023-06-22T02:43:09;19.35;;;12.70;;
60076;SDS011;45950;45.208;20.374;2023-06-22T02:45:35;17.95;;;11.73;;
60076;SDS011;45950;45.208;20.374;2023-06-22T02:48:13;13.30;;;11.15;;
60076;SDS011;45950;45.208;20.374;2023-06-22T02:50:40;13.60;;;11.02;;
60076;SDS011;45950;45.208;20.374;2023-06-22T02:53:06;14.93;;;10.32;;
60076;SDS011;45950;45.208;20.374;2023-06-22T02:55:34;15.40;;;11.13;;
60076;SDS011;45950;45.208;20.374;2023-06-22T02:58:01;13.57;;;11.23;;
60076;SDS011;45950;45.208;20.374;2023-06-22T03:00:30;14.77;;;11.38;;
60076;SDS011;45950;45.208;20.374;2023-06-22T03:02:56;14.45;;;10.73;;
60076;SDS011;45950;45.208;20.374;2023-06-22T03:05:23;13.85;;;11.13;;
60076;SDS011;45950;45.208;20.374;2023-06-22T03:07:51;13.40;;;10.85;;
60076;SDS011;45950;45.208;20.374;2023-06-22T03:10:17;11.85;;;10.65;;
60076;SDS011;45950;45.208;20.374;2023-06-22T03:12:46;13.00;;;10.60;;
60076;SDS011;45950;45.208;20.374;2023-06-22T03:15:12;15.63;;;10.02;;
60076;SDS011;45950;45.208;20.374;2023-06-22T03:17:40;16.08;;;10.88;;
60076;SDS011;45950;45.208;20.374;2023-06-22T03:20:07;13.50;;;11.77;;
60076;SDS011;45950;45.208;20.374;2023-06-22T03:22:35;12.65;;;9.95;;
60076;SDS011;45950;45.208;20.374;2023-06-22T03:25:02;12.98;;;11.13;;
60076;SDS011;45950;45.208;20.374;2023-06-22T03:27:29;13.63;;;11.20;;
60076;SDS011;45950;45.208;20.374;2023-06-22T03:29:57;15.02;;;9.57;;
60076;SDS011;45950;45.208;20.374;2023-06-22T03:32:24;15.57;;;11.45;;
60076;SDS011;45950;45.208;20.374;2023-06-22T03:34:53;13.65;;;10.40;;
60076;SDS011;45950;45.208;20.374;2023-06-22T03:37:19;13.40;;;10.57;;
60076;SDS011;45950;45.208;20.374;2023-06-22T03:39:46;14.80;;;10.40;;
60076;SDS011;45950;45.208;20.374;2023-06-22T03:42:13;13.27;;;10.93;;
60076;SDS011;45950;45.208;20.374;2023-06-22T03:44:39;13.93;;;10.75;;
60076;SDS011;45950;45.208;20.374;2023-06-22T03:47:07;15.98;;;11.93;;
60076;SDS011;45950;45.208;20.374;2023-06-22T03:49:34;17.05;;;11.90;;
60076;SDS011;45950;45.208;20.374;2023-06-22T03:52:01;12.40;;;10.77;;
60076;SDS011;45950;45.208;20.374;2023-06-22T03:54:28;12.18;;;10.85;;
60076;SDS011;45950;45.208;20.374;2023-06-22T03:56:56;12.15;;;10.15;;
60076;SDS011;45950;45.208;20.374;2023-06-22T03:59:22;13.30;;;11.48;;
60076;SDS011;45950;45.208;20.374;2023-06-22T04:01:49;12.40;;;10.48;;
60076;SDS011;45950;45.208;20.374;2023-06-22T04:04:17;13.88;;;10.90;;
60076;SDS011;45950;45.208;20.374;2023-06-22T04:06:44;15.68;;;12.35;;
60076;SDS011;45950;45.208;20.374;2023-06-22T04:09:10;12.20;;;10.55;;
60076;SDS011;45950;45.208;20.374;2023-06-22T04:11:37;12.95;;;10.35;;
60076;SDS011;45950;45.208;20.374;2023-06-22T04:14:04;12.73;;;10.48;;
60076;SDS011;45950;45.208;20.374;2023-06-22T04:16:30;14.00;;;9.80;;
60076;SDS011;45950;45.208;20.374;2023-06-22T04:18:57;13.75;;;9.82;;
60076;SDS011;45950;45.208;20.374;2023-06-22T04:21:25;13.30;;;11.27;;
60076;SDS011;45950;45.208;20.374;2023-06-22T04:23:51;13.15;;;11.75;;
60076;SDS011;45950;45.208;20.374;2023-06-22T04:26:18;12.10;;;10.38;;
60076;SDS011;45950;45.208;20.374;2023-06-22T04:28:46;12.00;;;10.70;;
60076;SDS011;45950;45.208;20.374;2023-06-22T04:31:17;12.38;;;10.77;;
60076;SDS011;45950;45.208;20.374;2023-06-22T04:33:43;12.98;;;11.35;;
60076;SDS011;45950;45.208;20.374;2023-06-22T04:36:10;13.05;;;10.30;;
60076;SDS011;45950;45.208;20.374;2023-06-22T04:38:39;13.30;;;11.85;;
60076;SDS011;45950;45.208;20.374;2023-06-22T04:41:07;12.23;;;10.95;;
60076;SDS011;45950;45.208;20.374;2023-06-22T04:46:41;14.07;;;11.02;;
60076;SDS011;45950;45.208;20.374;2023-06-22T04:49:08;13.07;;;10.27;;
60076;SDS011;45950;45.208;20.374;2023-06-22T04:51:39;11.10;;;9.93;;
60076;SDS011;45950;45.208;20.374;2023-06-22T04:54:08;13.68;;;11.30;;
60076;SDS011;45950;45.208;20.374;2023-06-22T04:56:35;14.40;;;11.57;;
60076;SDS011;45950;45.208;20.374;2023-06-22T04:59:02;15.52;;;13.20;;
60076;SDS011;45950;45.208;20.374;2023-06-22T05:01:29;17.10;;;12.85;;
60076;SDS011;45950;45.208;20.374;2023-06-22T05:03:57;16.05;;;12.30;;
60076;SDS011;45950;45.208;20.374;2023-06-22T05:06:26;13.43;;;10.65;;
60076;SDS011;45950;45.208;20.374;2023-06-22T05:08:53;20.90;;;16.30;;
60076;SDS011;45950;45.208;20.374;2023-06-22T05:11:23;14.88;;;10.98;;
60076;SDS011;45950;45.208;20.374;2023-06-22T05:14:02;14.00;;;12.50;;
60076;SDS011;45950;45.208;20.374;2023-06-22T05:16:29;16.67;;;11.40;;
60076;SDS011;45950;45.208;20.374;2023-06-22T05:18:55;16.55;;;13.93;;
60076;SDS011;45950;45.208;20.374;2023-06-22T05:21:22;14.30;;;11.90;;
60076;SDS011;45950;45.208;20.374;2023-06-22T05:23:50;14.05;;;10.90;;
60076;SDS011;45950;45.208;20.374;2023-06-22T05:26:16;15.77;;;12.18;;
60076;SDS011;45950;45.208;20.374;2023-06-22T05:28:44;27.15;;;12.30;;
60076;SDS011;45950;45.208;20.374;2023-06-22T05:31:12;16.08;;;12.00;;
60076;SDS011;45950;45.208;20.374;2023-06-22T05:33:39;12.93;;;11.63;;
60076;SDS011;45950;45.208;20.374;2023-06-22T05:36:06;13.50;;;12.05;;
60076;SDS011;45950;45.208;20.374;2023-06-22T05:38:32;13.98;;;11.95;;
60076;SDS011;45950;45.208;20.374;2023-06-22T05:40:59;13.23;;;11.77;;
60076;SDS011;45950;45.208;20.374;2023-06-22T05:43:26;12.80;;;11.32;;
60076;SDS011;45950;45.208;20.374;2023-06-22T05:45:54;13.50;;;11.23;;
60076;SDS011;45950;45.208;20.374;2023-06-22T05:48:20;13.32;;;10.82;;
60076;SDS011;45950;45.208;20.374;2023-06-22T05:50:47;11.88;;;10.57;;
60076;SDS011;45950;45.208;20.374;2023-06-22T05:53:14;12.88;;;11.10;;
60076;SDS011;45950;45.208;20.374;2023-06-22T05:55:40;12.18;;;10.48;;
60076;SDS011;45950;45.208;20.374;2023-06-22T05:58:07;13.35;;;11.00;;
60076;SDS011;45950;45.208;20.374;2023-06-22T06:00:34;13.63;;;11.93;;
60076;SDS011;45950;45.208;20.374;2023-06-22T06:03:04;12.18;;;10.90;;
60076;SDS011;45950;45.208;20.374;2023-06-22T06:05:31;10.63;;;9.55;;
60076;SDS011;45950;45.208;20.374;2023-06-22T06:07:58;11.10;;;9.93;;
60076;SDS011;45950;45.208;20.374;2023-06-22T06:10:25;10.23;;;9.07;;
60076;SDS011;45950;45.208;20.374;2023-06-22T06:12:52;10.52;;;9.40;;
60076;SDS011;45950;45.208;20.374;2023-06-22T06:15:19;12.65;;;10.07;;
60076;SDS011;45950;45.208;20.374;2023-06-22T06:17:46;11.40;;;9.85;;
60076;SDS011;45950;45.208;20.374;2023-06-22T06:20:14;11.63;;;10.43;;
60076;SDS011;45950;45.208;20.374;2023-06-22T06:22:41;12.50;;;11.20;;
60076;SDS011;45950;45.208;20.374;2023-06-22T06:25:09;11.90;;;10.43;;
60076;SDS011;45950;45.208;20.374;2023-06-22T06:27:41;11.45;;;10.32;;
60076;SDS011;45950;45.208;20.374;2023-06-22T06:30:08;13.05;;;10.35;;
60076;SDS011;45950;45.208;20.374;2023-06-22T06:32:34;11.80;;;10.55;;
60076;SDS011;45950;45.208;20.374;2023-06-22T06:35:01;11.07;;;9.98;;
60076;SDS011;45950;45.208;20.374;2023-06-22T06:37:29;10.43;;;9.35;;
60076;SDS011;45950;45.208;20.374;2023-06-22T06:39:56;11.77;;;10.00;;
60076;SDS011;45950;45.208;20.374;2023-06-22T06:42:22;9.43;;;8.38;;
60076;SDS011;45950;45.208;20.374;2023-06-22T06:44:49;10.48;;;9.38;;
60076;SDS011;45950;45.208;20.374;2023-06-22T06:47:16;11.52;;;10.13;;
60076;SDS011;45950;45.208;20.374;2023-06-22T06:49:43;10.98;;;9.88;;
60076;SDS011;45950;45.208;20.374;2023-06-22T06:52:09;11.00;;;9.85;;
60076;SDS011;45950;45.208;20.374;2023-06-22T06:54:37;10.30;;;9.10;;
60076;SDS011;45950;45.208;20.374;2023-06-22T06:57:04;12.95;;;10.05;;
60076;SDS011;45950;45.208;20.374;2023-06-22T06:59:31;13.32;;;10.48;;
60076;SDS011;45950;45.208;20.374;2023-06-22T07:01:57;11.15;;;10.02;;
60076;SDS011;45950;45.208;20.374;2023-06-22T07:04:24;11.10;;;9.73;;
60076;SDS011;45950;45.208;20.374;2023-06-22T07:06:51;9.77;;;8.77;;
60076;SDS011;45950;45.208;20.374;2023-06-22T07:09:17;11.50;;;10.05;;
60076;SDS011;45950;45.208;20.374;2023-06-22T07:11:46;10.57;;;9.48;;
60076;SDS011;45950;45.208;20.374;2023-06-22T07:14:12;10.05;;;8.90;;
60076;SDS011;45950;45.208;20.374;2023-06-22T07:16:39;10.35;;;9.35;;
60076;SDS011;45950;45.208;20.374;2023-06-22T07:19:07;10.00;;;9.00;;
60076;SDS011;45950;45.208;20.374;2023-06-22T07:21:33;11.55;;;9.60;;
60076;SDS011;45950;45.208;20.374;2023-06-22T07:24:00;9.95;;;8.95;;
60076;SDS011;45950;45.208;20.374;2023-06-22T07:26:26;9.70;;;8.77;;
60076;SDS011;45950;45.208;20.374;2023-06-22T07:28:54;11.38;;;9.48;;
60076;SDS011;45950;45.208;20.374;2023-06-22T07:31:23;10.38;;;8.98;;
60076;SDS011;45950;45.208;20.374;2023-06-22T07:33:50;10.00;;;9.00;;
60076;SDS011;45950;45.208;20.374;2023-06-22T07:36:16;9.95;;;8.95;;
60076;SDS011;45950;45.208;20.374;2023-06-22T07:38:43;11.05;;;9.02;;
60076;SDS011;45950;45.208;20.374;2023-06-22T07:41:10;9.32;;;8.25;;
60076;SDS011;45950;45.208;20.374;2023-06-22T07:43:36;12.25;;;9.45;;
60076;SDS011;45950;45.208;20.374;2023-06-22T07:46:04;8.90;;;8.05;;
60076;SDS011;45950;45.208;20.374;2023-06-22T07:48:31;11.15;;;8.35;;
60076;SDS011;45950;45.208;20.374;2023-06-22T07:50:58;8.70;;;7.80;;
60076;SDS011;45950;45.208;20.374;2023-06-22T07:53:24;9.68;;;7.63;;
60076;SDS011;45950;45.208;20.374;2023-06-22T07:55:53;9.25;;;8.35;;
60076;SDS011;45950;45.208;20.374;2023-06-22T07:58:19;8.85;;;7.38;;
60076;SDS011;45950;45.208;20.374;2023-06-22T08:00:46;8.85;;;7.68;;
60076;SDS011;45950;45.208;20.374;2023-06-22T08:03:15;9.05;;;7.95;;
60076;SDS011;45950;45.208;20.374;2023-06-22T08:05:42;9.57;;;8.68;;
60076;SDS011;45950;45.208;20.374;2023-06-22T08:08:09;8.70;;;7.88;;
60076;SDS011;45950;45.208;20.374;2023-06-22T08:10:35;8.45;;;7.75;;
60076;SDS011;45950;45.208;20.374;2023-06-22T08:13:02;7.45;;;6.53;;
60076;SDS011;45950;45.208;20.374;2023-06-22T08:15:28;7.82;;;7.03;;
60076;SDS011;45950;45.208;20.374;2023-06-22T08:17:59;9.75;;;6.40;;
60076;SDS011;45950;45.208;20.374;2023-06-22T08:20:27;10.15;;;7.20;;
60076;SDS011;45950;45.208;20.374;2023-06-22T08:22:55;7.43;;;6.47;;
60076;SDS011;45950;45.208;20.374;2023-06-22T08:25:23;7.40;;;6.63;;
60076;SDS011;45950;45.208;20.374;2023-06-22T08:27:49;8.77;;;7.10;;
60076;SDS011;45950;45.208;20.374;2023-06-22T08:30:16;7.43;;;6.72;;
60076;SDS011;45950;45.208;20.374;2023-06-22T08:32:43;8.57;;;7.53;;
60076;SDS011;45950;45.208;20.374;2023-06-22T08:35:10;7.95;;;7.15;;
60076;SDS011;45950;45.208;20.374;2023-06-22T08:37:38;8.32;;;7.13;;
60076;SDS011;45950;45.208;20.374;2023-06-22T08:40:07;8.63;;;7.72;;
60076;SDS011;45950;45.208;20.374;2023-06-22T08:42:34;7.68;;;6.80;;
60076;SDS011;45950;45.208;20.374;2023-06-22T08:45:01;7.47;;;6.78;;
60076;SDS011;45950;45.208;20.374;2023-06-22T08:47:28;7.00;;;6.30;;
60076;SDS011;45950;45.208;20.374;2023-06-22T08:49:54;8.48;;;6.93;;
60076;SDS011;45950;45.208;20.374;2023-06-22T08:52:21;8.35;;;7.50;;
60076;SDS011;45950;45.208;20.374;2023-06-22T08:54:50;8.98;;;7.72;;
60076;SDS011;45950;45.208;20.374;2023-06-22T08:57:16;7.90;;;7.10;;
60076;SDS011;45950;45.208;20.374;2023-06-22T08:59:43;10.48;;;7.40;;
60076;SDS011;45950;45.208;20.374;2023-06-22T09:02:09;8.05;;;7.25;;
60076;SDS011;45950;45.208;20.374;2023-06-22T09:04:36;7.45;;;6.75;;
60076;SDS011;45950;45.208;20.374;2023-06-22T09:07:03;7.80;;;7.05;;
60076;SDS011;45950;45.208;20.374;2023-06-22T09:09:30;8.60;;;7.70;;
60076;SDS011;45950;45.208;20.374;2023-06-22T09:11:58;7.78;;;6.97;;
60076;SDS011;45950;45.208;20.374;2023-06-22T09:14:24;7.07;;;6.38;;
60076;SDS011;45950;45.208;20.374;2023-06-22T09:16:51;7.97;;;5.93;;
60076;SDS011;45950;45.208;20.374;2023-06-22T09:19:18;9.23;;;7.43;;
60076;SDS011;45950;45.208;20.374;2023-06-22T09:21:44;8.90;;;7.68;;
60076;SDS011;45950;45.208;20.374;2023-06-22T09:24:11;9.55;;;7.65;;
60076;SDS011;45950;45.208;20.374;2023-06-22T09:26:38;7.72;;;6.72;;
60076;SDS011;45950;45.208;20.374;2023-06-22T09:29:07;7.40;;;6.70;;
60076;SDS011;45950;45.208;20.374;2023-06-22T09:31:34;8.65;;;7.85;;
60076;SDS011;45950;45.208;20.374;2023-06-22T09:34:00;8.25;;;7.22;;
60076;SDS011;45950;45.208;20.374;2023-06-22T09:36:27;8.40;;;7.45;;
60076;SDS011;45950;45.208;20.374;2023-06-22T09:38:53;8.23;;;7.25;;
60076;SDS011;45950;45.208;20.374;2023-06-22T09:41:23;7.55;;;6.85;;
60076;SDS011;45950;45.208;20.374;2023-06-22T09:43:50;7.85;;;7.05;;
60076;SDS011;45950;45.208;20.374;2023-06-22T09:46:18;7.85;;;7.05;;
60076;SDS011;45950;45.208;20.374;2023-06-22T09:48:46;8.18;;;7.32;;
60076;SDS011;45950;45.208;20.374;2023-06-22T09:51:13;8.05;;;6.25;;
60076;SDS011;45950;45.208;20.374;2023-06-22T09:53:40;8.98;;;7.68;;
60076;SDS011;45950;45.208;20.374;2023-06-22T09:56:06;7.80;;;7.00;;
60076;SDS011;45950;45.208;20.374;2023-06-22T09:58:36;7.35;;;6.65;;
60076;SDS011;45950;45.208;20.374;2023-06-22T10:01:03;8.77;;;7.03;;
60076;SDS011;45950;45.208;20.374;2023-06-22T10:03:31;7.97;;;7.18;;
60076;SDS011;45950;45.208;20.374;2023-06-22T10:05:59;9.50;;;7.13;;
60076;SDS011;45950;45.208;20.374;2023-06-22T10:08:26;8.10;;;7.25;;
60076;SDS011;45950;45.208;20.374;2023-06-22T10:10:52;7.60;;;6.90;;
60076;SDS011;45950;45.208;20.374;2023-06-22T10:13:19;7.32;;;6.72;;
60076;SDS011;45950;45.208;20.374;2023-06-22T10:15:46;8.13;;;6.75;;
60076;SDS011;45950;45.208;20.374;2023-06-22T10:18:16;11.60;;;8.60;;
60076;SDS011;45950;45.208;20.374;2023-06-22T10:20:44;8.30;;;7.40;;
60076;SDS011;45950;45.208;20.374;2023-06-22T10:23:11;7.13;;;6.43;;
60076;SDS011;45950;45.208;20.374;2023-06-22T10:25:38;7.78;;;6.97;;
60076;SDS011;45950;45.208;20.374;2023-06-22T10:28:04;7.53;;;6.32;;
60076;SDS011;45950;45.208;20.374;2023-06-22T10:30:31;8.25;;;6.82;;
60076;SDS011;45950;45.208;20.374;2023-06-22T10:32:58;13.27;;;8.27;;
60076;SDS011;45950;45.208;20.374;2023-06-22T10:35:25;7.13;;;6.43;;
60076;SDS011;45950;45.208;20.374;2023-06-22T10:37:54;7.57;;;6.88;;
60076;SDS011;45950;45.208;20.374;2023-06-22T10:40:21;11.00;;;6.80;;
60076;SDS011;45950;45.208;20.374;2023-06-22T10:42:48;10.07;;;7.53;;
60076;SDS011;45950;45.208;20.374;2023-06-22T10:45:15;12.68;;;7.32;;
60076;SDS011;45950;45.208;20.374;2023-06-22T10:47:42;11.27;;;7.18;;
60076;SDS011;45950;45.208;20.374;2023-06-22T10:50:08;12.73;;;7.40;;
60076;SDS011;45950;45.208;20.374;2023-06-22T10:52:35;8.68;;;7.22;;
60076;SDS011;45950;45.208;20.374;2023-06-22T10:55:03;9.95;;;7.25;;
60076;SDS011;45950;45.208;20.374;2023-06-22T10:57:30;10.65;;;7.07;;
60076;SDS011;45950;45.208;20.374;2023-06-22T10:59:57;10.95;;;7.93;;
60076;SDS011;45950;45.208;20.374;2023-06-22T11:02:23;9.10;;;7.65;;
60076;SDS011;45950;45.208;20.374;2023-06-22T11:04:50;9.23;;;7.35;;
60076;SDS011;45950;45.208;20.374;2023-06-22T11:07:17;9.20;;;7.18;;
60076;SDS011;45950;45.208;20.374;2023-06-22T11:09:43;9.82;;;7.15;;
60076;SDS011;45950;45.208;20.374;2023-06-22T11:12:11;8.60;;;6.72;;
60076;SDS011;45950;45.208;20.374;2023-06-22T11:14:38;9.40;;;6.78;;
60076;SDS011;45950;45.208;20.374;2023-06-22T11:17:05;9.73;;;7.28;;
60076;SDS011;45950;45.208;20.374;2023-06-22T11:19:31;10.52;;;8.07;;
60076;SDS011;45950;45.208;20.374;2023-06-22T11:21:58;9.80;;;7.80;;
60076;SDS011;45950;45.208;20.374;2023-06-22T11:24:25;11.10;;;7.13;;
60076;SDS011;45950;45.208;20.374;2023-06-22T11:26:51;8.20;;;6.95;;
60076;SDS011;45950;45.208;20.374;2023-06-22T11:29:19;7.38;;;6.53;;
60076;SDS011;45950;45.208;20.374;2023-06-22T11:31:46;8.82;;;7.13;;
60076;SDS011;45950;45.208;20.374;2023-06-22T11:34:12;8.13;;;7.18;;
60076;SDS011;45950;45.208;20.374;2023-06-22T11:36:39;8.68;;;6.05;;
60076;SDS011;45950;45.208;20.374;2023-06-22T11:39:08;10.80;;;6.95;;
60076;SDS011;45950;45.208;20.374;2023-06-22T11:41:34;10.75;;;6.47;;
60076;SDS011;45950;45.208;20.374;2023-06-22T11:44:01;10.05;;;6.93;;
60076;SDS011;45950;45.208;20.374;2023-06-22T11:46:31;8.07;;;6.78;;
60076;SDS011;45950;45.208;20.374;2023-06-22T11:48:58;7.45;;;6.63;;
60076;SDS011;45950;45.208;20.374;2023-06-22T11:51:25;10.43;;;7.75;;
60076;SDS011;45950;45.208;20.374;2023-06-22T11:53:51;7.70;;;6.85;;
60076;SDS011;45950;45.208;20.374;2023-06-22T11:56:18;13.02;;;6.95;;
60076;SDS011;45950;45.208;20.374;2023-06-22T11:58:44;8.23;;;6.30;;
60076;SDS011;45950;45.208;20.374;2023-06-22T12:01:14;7.93;;;6.50;;
60076;SDS011;45950;45.208;20.374;2023-06-22T12:03:42;8.27;;;6.75;;
60076;SDS011;45950;45.208;20.374;2023-06-22T12:06:09;10.82;;;6.95;;
60076;SDS011;45950;45.208;20.374;2023-06-22T12:08:36;7.72;;;6.53;;
60076;SDS011;45950;45.208;20.374;2023-06-22T12:11:02;7.82;;;6.70;;
60076;SDS011;45950;45.208;20.374;2023-06-22T12:13:29;10.57;;;7.05;;
60076;SDS011;45950;45.208;20.374;2023-06-22T12:15:55;9.10;;;7.22;;
60076;SDS011;45950;45.208;20.374;2023-06-22T12:18:22;7.80;;;7.10;;
60076;SDS011;45950;45.208;20.374;2023-06-22T12:20:50;9.25;;;7.60;;
60076;SDS011;45950;45.208;20.374;2023-06-22T12:23:17;9.00;;;7.35;;
60076;SDS011;45950;45.208;20.374;2023-06-22T12:25:45;9.25;;;7.03;;
60076;SDS011;45950;45.208;20.374;2023-06-22T12:28:13;7.57;;;6.50;;
60076;SDS011;45950;45.208;20.374;2023-06-22T12:30:40;9.88;;;7.55;;
60076;SDS011;45950;45.208;20.374;2023-06-22T12:33:06;9.32;;;7.55;;
60076;SDS011;45950;45.208;20.374;2023-06-22T12:35:33;12.35;;;7.93;;
60076;SDS011;45950;45.208;20.374;2023-06-22T12:38:01;12.65;;;8.25;;
60076;SDS011;45950;45.208;20.374;2023-06-22T12:40:31;8.38;;;7.40;;
60076;SDS011;45950;45.208;20.374;2023-06-22T12:42:58;8.15;;;6.85;;
60076;SDS011;45950;45.208;20.374;2023-06-22T12:45:25;9.43;;;7.38;;
60076;SDS011;45950;45.208;20.374;2023-06-22T12:47:54;8.20;;;7.03;;
60076;SDS011;45950;45.208;20.374;2023-06-22T12:50:20;9.23;;;6.75;;
60076;SDS011;45950;45.208;20.374;2023-06-22T12:52:47;11.50;;;7.32;;
60076;SDS011;45950;45.208;20.374;2023-06-22T12:55:15;8.45;;;7.55;;
60076;SDS011;45950;45.208;20.374;2023-06-22T12:57:42;6.82;;;6.22;;
60076;SDS011;45950;45.208;20.374;2023-06-22T13:00:09;8.23;;;6.90;;
60076;SDS011;45950;45.208;20.374;2023-06-22T13:02:36;8.27;;;7.32;;
60076;SDS011;45950;45.208;20.374;2023-06-22T13:05:03;8.38;;;6.55;;
60076;SDS011;45950;45.208;20.374;2023-06-22T13:07:31;7.82;;;6.93;;
60076;SDS011;45950;45.208;20.374;2023-06-22T13:09:57;10.98;;;7.55;;
60076;SDS011;45950;45.208;20.374;2023-06-22T13:12:25;9.07;;;7.20;;
60076;SDS011;45950;45.208;20.374;2023-06-22T13:14:52;8.90;;;8.02;;
60076;SDS011;45950;45.208;20.374;2023-06-22T13:17:19;7.78;;;6.97;;
60076;SDS011;45950;45.208;20.374;2023-06-22T13:19:45;14.98;;;7.55;;
60076;SDS011;45950;45.208;20.374;2023-06-22T13:22:25;7.63;;;6.70;;
60076;SDS011;45950;45.208;20.374;2023-06-22T13:24:53;9.25;;;7.10;;
60076;SDS011;45950;45.208;20.374;2023-06-22T13:27:19;8.50;;;5.95;;
60076;SDS011;45950;45.208;20.374;2023-06-22T13:29:47;8.07;;;7.28;;
60076;SDS011;45950;45.208;20.374;2023-06-22T13:32:14;8.88;;;8.00;;
60076;SDS011;45950;45.208;20.374;2023-06-22T13:34:41;8.43;;;6.40;;
60076;SDS011;45950;45.208;20.374;2023-06-22T13:37:07;9.50;;;6.93;;
60076;SDS011;45950;45.208;20.374;2023-06-22T13:39:34;8.73;;;7.40;;
60076;SDS011;45950;45.208;20.374;2023-06-22T13:42:01;8.07;;;6.72;;
60076;SDS011;45950;45.208;20.374;2023-06-22T13:44:27;7.90;;;7.13;;
60076;SDS011;45950;45.208;20.374;2023-06-22T13:46:55;7.97;;;7.03;;
60076;SDS011;45950;45.208;20.374;2023-06-22T13:49:22;7.45;;;6.80;;
60076;SDS011;45950;45.208;20.374;2023-06-22T13:51:49;7.68;;;6.88;;
60076;SDS011;45950;45.208;20.374;2023-06-22T13:54:15;7.47;;;6.78;;
60076;SDS011;45950;45.208;20.374;2023-06-22T13:56:42;7.47;;;6.78;;
60076;SDS011;45950;45.208;20.374;2023-06-22T13:59:08;12.13;;;6.85;;
60076;SDS011;45950;45.208;20.374;2023-06-22T14:01:35;7.50;;;6.78;;
60076;SDS011;45950;45.208;20.374;2023-06-22T14:04:05;8.55;;;7.20;;
60076;SDS011;45950;45.208;20.374;2023-06-22T14:06:32;8.80;;;6.95;;
60076;SDS011;45950;45.208;20.374;2023-06-22T14:08:59;8.70;;;7.80;;
60076;SDS011;45950;45.208;20.374;2023-06-22T14:11:25;8.20;;;7.20;;
60076;SDS011;45950;45.208;20.374;2023-06-22T14:13:52;8.30;;;7.05;;
60076;SDS011;45950;45.208;20.374;2023-06-22T14:16:18;6.78;;;6.07;;
60076;SDS011;45950;45.208;20.374;2023-06-22T14:18:45;7.97;;;7.18;;
60076;SDS011;45950;45.208;20.374;2023-06-22T14:21:13;7.63;;;6.30;;
60076;SDS011;45950;45.208;20.374;2023-06-22T14:23:40;7.72;;;6.40;;
60076;SDS011;45950;45.208;20.374;2023-06-22T14:26:06;9.18;;;7.55;;